SCCI/PUQ METAR and TAF weather

Enter ICAO airport designator
Station Type Date Time Source
SCCI METAR 2021/07/29 02:00 UTC NOAA

SCCI 290200Z 33011KT 9999 SCT040 BKN080 09/03 Q1008 NOSIG


Station Type Date Time Source
SCCI Decoded METAR 2021/07/29 02:00 UTC NOAA

Punta Arenas, Chile (SCCI) 53-00S 070-51W 33M
Jul 28, 2021 - 10:00 PM EDT / 2021.07.29 0200 UTC
Wind: from the NNW (330 degrees) at 13 MPH (11 KT):0
Visibility: greater than 7 mile(s):0
Sky conditions: mostly cloudy
Temperature: 48 F (9 C)
Dew Point: 37 F (3 C)
Relative Humidity: 66%
Pressure (altimeter): 29.77 in. Hg (1008 hPa)
ob: SCCI 290200Z 33011KT 9999 SCT040 BKN080 09/03 Q1008 NOSIG
cycle: 2

Station Type Date Time Source
SCCI TAF 2021/07/29 00:00 UTC NOAA

TAF SCCI 282210Z 2900/3000 33010G20KT 9999 FEW045 TN04/2922Z TX07/2918Z
BECMG 2907/2909 SCT032 BKN050 PROB30
TEMPO 2908/2912 8000 -RA BKN035
BECMG 2913/2915 29025G35KT SCT040 PROB40
TEMPO 2918/2923 27035G45KT 8000 -SHRA BKN025

Example: see airport list